Nearby METAR Reports

EGNX - East Midlands, United Kingdom
Distance: S 18mi, 28km
Updated: 16/02/2019 21:50
Mostly cloudy
Mostly cloudy
 Wind from S
Wind: S 13 mph , 20 km/h
Temperature: 11°C
Dew Point: 9°C
Humidity: 88%
Barometer: 1018 hPa
Clouds: Mostly cloudy
Visibility: 6 miles , 10 km
Cloud details: Few Clouds 488 m
Mostly cloudy 914 m
2019/02/16 21:50 EGNX 162150Z 18011KT 9999 FEW016 BKN030 11/09 Q1018
EGCN - Doncaster Sheffi, United Kingdom
Distance: NNE 31mi, 50km
Updated: 16/02/2019 21:50
Overcast
Overcast
 Wind from SSE
Wind: SSE 9 mph , 15 km/h
Temperature: 12°C
Dew Point: 9°C
Humidity: 82%
Barometer: 1018 hPa
Clouds: Overcast
Visibility: 6 miles , 10 km
Cloud details: Overcast 1097 m
2019/02/16 21:50 EGCN 162150Z 16008KT 9999 OVC036 12/09 Q1018
EGYE - Barkston Heath R, United Kingdom
Distance: ESE 31mi, 50km
Updated: 15/02/2019 15:50
NOT Current
Clear
Clear
 Wind from S
Wind: S 12 mph , 19 km/h
Barometer: 1023 hPa
Summary: Clear
Visibility: greater than 7 miles , 10 km
2019/02/15 15:50 EGYE 151550Z 19010KT CAVOK ///// Q1023 BLU
 
EGXW - Waddington Raf, United Kingdom
Distance: ENE 33mi, 53km
Updated: 16/02/2019 21:50
Overcast
Overcast
 Wind from S
Wind: S 18 mph , 30 km/h
Temperature: 11°C
Dew Point: 9°C
Humidity: 88%
Barometer: 1018 hPa
Clouds: Overcast
Visibility: 6 miles , 10 km
Cloud details: Overcast 792 m
2019/02/16 21:50 EGXW 162150Z AUTO 19016KT 9999 OVC026/// 11/09 Q1018
EGYD - Cranwell Raf, United Kingdom
Distance: E 33mi, 53km
Updated: 16/02/2019 21:50
Mostly cloudy
Mostly cloudy
 Wind from S
Wind: S 15 mph , 24 km/h
Temperature: 11°C
Dew Point: 9°C
Humidity: 88%
Barometer: 1019 hPa
Clouds: Mostly cloudy
Visibility: 6 miles , 10 km
Cloud details: Mostly cloudy 823 m
2019/02/16 21:50 EGYD 162150Z AUTO 18013KT 9999 // BKN027/// 11/09 Q1019
EGXP - Scampton Raf, United Kingdom
Distance: ENE 35mi, 56km
Updated: 16/02/2019 21:50
Mostly cloudy
Mostly cloudy
 Wind from SSW
Wind: SSW 14 mph , 22 km/h
Temperature: 12°C
Dew Point: 9°C
Humidity: 82%
Barometer: 1018 hPa
Clouds: Mostly cloudy
Visibility: 6 miles , 10 km
Cloud details: Mostly cloudy 914 m
2019/02/16 21:50 EGXP 162150Z AUTO 20012KT 9999 // BKN030/// 12/09 Q1018
 
EGCC - Manchester Intl, United Kingdom
Distance: WNW 45mi, 72km
Updated: 16/02/2019 21:50
Mostly cloudy
Mostly cloudy
 Wind from S
Wind: S 7 mph , 11 km/h
Temperature: 12°C
Dew Point: 8°C
Humidity: 77%
Barometer: 1016 hPa
Clouds: Mostly cloudy
Visibility: 6 miles , 10 km
Cloud details: Mostly cloudy 884 m
Mostly cloudy 1006 m
2019/02/16 21:50 EGCC 162150Z AUTO 17006KT 110V220 9999 BKN029 BKN033 12/08 Q1016 NOSIG
EGBB - Birmingham Airpo, United Kingdom
Distance: SSW 46mi, 74km
Updated: 16/02/2019 21:50
Overcast
Overcast
 Wind from S
Wind: S 12 mph , 19 km/h
Temperature: 11°C
Dew Point: 9°C
Humidity: 88%
Barometer: 1018 hPa
Clouds: Overcast
Visibility: 6 miles , 10 km
Cloud details: Partly cloudy 427 m
Overcast 610 m
2019/02/16 21:50 EGBB 162150Z 19010KT 9999 SCT014 OVC020 11/09 Q1018
EGXC - Coningsby Raf, United Kingdom
Distance: E 47mi, 75km
Updated: 16/02/2019 21:50
Mostly cloudy
Mostly cloudy
 Wind from S
Wind: S 9 mph , 15 km/h
Temperature: 10°C
Wind Chill: 8°C
Dew Point: 9°C
Humidity: 94%
Barometer: 1019 hPa
Clouds: Mostly cloudy
Visibility: 6 miles , 10 km
Cloud details: Partly cloudy 671 m
Mostly cloudy 762 m
2019/02/16 21:50 EGXC 162150Z 18008KT 9999 SCT022 BKN025 10/09 Q1019 WHT
 
EGXT - Wittering Raf, United Kingdom
Distance: SE 47mi, 75km
Updated: 16/02/2019 21:50
Overcast
Overcast
 Wind from SSW
Wind: SSW 14 mph , 22 km/h
Temperature: 11°C
Dew Point: 9°C
Humidity: 88%
Barometer: 1019 hPa
Clouds: Overcast
Visibility: 6 miles , 10 km
Cloud details: Overcast 671 m
2019/02/16 21:50 EGXT 162150Z AUTO 20012KT 9999 OVC022/// 11/09 Q1019
EGNJ - Humberside, United Kingdom
Distance: NE 52mi, 83km
Updated: 16/02/2019 21:50
Overcast
Overcast
 Wind from S
Wind: S 15 mph , 24 km/h
Temperature: 10°C
Wind Chill: 7°C
Dew Point: 9°C
Humidity: 94%
Barometer: 1018 hPa
Clouds: Overcast
Visibility: 6 miles , 10 km
Cloud details: Overcast 1006 m
2019/02/16 21:50 EGNJ 162150Z AUTO 19013KT 9999 OVC033/// 10/09 Q1018
EGWC - Cosford Raf, United Kingdom
Distance: SW 52mi, 83km
Updated: 16/02/2019 15:50
NOT Current
Mostly cloudy
Mostly cloudy
 Wind from S
Wind: S 13 mph , 20 km/h
Temperature: 12°C
Dew Point: 8°C
Humidity: 77%
Barometer: 1018 hPa
Clouds: Mostly cloudy
Visibility: 6 miles , 10 km
Cloud details: Few Clouds 610 m
Mostly cloudy 762 m
2019/02/16 15:50 EGWC 161550Z 19011KT 9999 FEW020 BKN025 12/08 Q1018 BLU
 
EGNM - Leeds And Bradfo, United Kingdom
Distance: NNW 57mi, 91km
Updated: 16/02/2019 21:50
Mostly cloudy
Mostly cloudy
 Wind from SSW
Wind: SSW 9 mph , 15 km/h
Temperature: 11°C
Dew Point: 8°C
Humidity: 82%
Barometer: 1016 hPa
Clouds: Mostly cloudy
Visibility: 6 miles , 10 km
Cloud details: Partly cloudy 610 m
Mostly cloudy 1097 m
2019/02/16 21:50 EGNM 162150Z 20008KT 150V230 9999 SCT020 BKN036 11/08 Q1016
EGOS - Shawbury Raf, United Kingdom
Distance: WSW 60mi, 97km
Updated: 16/02/2019 21:50
Mostly cloudy
Mostly cloudy
 Wind from S
Wind: S 12 mph , 19 km/h
Temperature: 11°C
Dew Point: 9°C
Humidity: 88%
Barometer: 1016 hPa
Clouds: Mostly cloudy
Visibility: 6 miles , 10 km
Cloud details: Mostly cloudy 488 m
2019/02/16 21:50 EGOS 162150Z AUTO 17010KT 9999 BKN016/// 11/09 Q1016
EGYH - Holbeach (aut), United Kingdom
Distance: ESE 62mi, 99km
Updated: 15/02/2019 10:50
NOT Current
Haze, Partly cloudy
Haze, Partly cloudy
 Wind from SSW
Wind: SSW 10 mph , 17 km/h
Temperature: 5°C
Wind Chill: 2°C
Dew Point: 4°C
Humidity: 93%
Barometer: 1027 hPa
Summary: Haze
Clouds: Partly cloudy
Visibility: 4 miles , 6 km
2019/02/15 10:50 EGYH 151050Z 21009KT 6000 HZ NSC 05/04 Q1027 WHT
 
EGXV - Leconfield (aut), United Kingdom
Distance: NNE 65mi, 105km
Updated: 16/02/2019 21:50
Mostly cloudy
Mostly cloudy
 Wind from S
Wind: S 9 mph , 15 km/h
Temperature: 10°C
Wind Chill: 8°C
Dew Point: 8°C
Humidity: 88%
Barometer: 1017 hPa
Clouds: Mostly cloudy
Visibility: 6 miles , 10 km
Cloud details: Mostly cloudy 1158 m
Mostly cloudy 6706 m
2019/02/16 21:50 EGXV 162150Z AUTO 18008KT 9999 BKN038/// BKN220/// 10/08 Q1017
EGXS - Donna Nook Raf, United Kingdom
Distance: ENE 66mi, 106km
Updated: 16/02/2019 21:50
Few Clouds
Few Clouds
 Wind from S
Wind: S 14 mph , 22 km/h
Temperature: 9°C
Wind Chill: 6°C
Dew Point: 8°C
Humidity: 94%
Barometer: 1018 hPa
Clouds: Few Clouds
Visibility: 6 miles , 10 km
Cloud details: Few Clouds 945 m
2019/02/16 21:50 EGXS 162150Z AUTO 18012KT 9999 // FEW031/// 09/08 Q1018
EGGP - Liverpool Airpor, United Kingdom
Distance: WNW 67mi, 107km
Updated: 16/02/2019 21:50
Mostly cloudy
Mostly cloudy
 Wind from S
Wind: S 14 mph , 22 km/h
Temperature: 11°C
Dew Point: 9°C
Humidity: 88%
Barometer: 1015 hPa
Clouds: Mostly cloudy
Visibility: 6 miles , 10 km
Cloud details: Mostly cloudy 975 m
2019/02/16 21:50 EGGP 162150Z 17012KT 9999 BKN032 11/09 Q1015
 
EGXU - Linton-On-Ouse R, United Kingdom
Distance: N 68mi, 109km
Updated: 16/02/2019 21:50
Mostly cloudy
Mostly cloudy
 Wind from SSE
Wind: SSE 12 mph , 19 km/h
Temperature: 11°C
Dew Point: 9°C
Humidity: 88%
Barometer: 1016 hPa
Clouds: Mostly cloudy
Visibility: 6 miles , 10 km
Cloud details: Mostly cloudy 1280 m
2019/02/16 21:50 EGXU 162150Z AUTO 16010KT 9999 // BKN042/// 11/09 Q1016
EGNR - Hawarden (aut), United Kingdom
Distance: W 70mi, 112km
Updated: 16/02/2019 18:50
NOT Current
Mostly cloudy
Mostly cloudy
 Wind from SSE
Wind: SSE 10 mph , 17 km/h
Temperature: 11°C
Dew Point: 8°C
Humidity: 82%
Barometer: 1017 hPa
Clouds: Mostly cloudy
Visibility: 6 miles , 10 km
Cloud details: Mostly cloudy 732 m
2019/02/16 18:50 EGNR 161850Z 15009KT 9999 BKN024 11/08 Q1017